createdAt,value
2018-02-23T00:00:16.874Z,48.23
2018-02-23T00:02:42.810Z,48.52
2018-02-23T00:05:09.263Z,48.80
2018-02-23T00:07:35.249Z,49.80
2018-02-23T00:10:01.211Z,49.01
2018-02-23T00:12:27.138Z,50.85
2018-02-23T00:14:53.090Z,49.96
2018-02-23T00:17:19.013Z,49.82
2018-02-23T00:19:44.953Z,49.01
2018-02-23T00:22:10.902Z,48.93
2018-02-23T00:24:36.867Z,49.32
2018-02-23T00:27:02.800Z,49.86
2018-02-23T00:29:28.746Z,50.56
2018-02-23T00:31:54.690Z,49.30
2018-02-23T00:34:20.633Z,50.49
2018-02-23T00:36:46.626Z,49.87
2018-02-23T00:39:12.625Z,51.10
2018-02-23T00:41:38.568Z,50.60
2018-02-23T00:44:04.548Z,50.52
2018-02-23T00:46:30.470Z,50.92
2018-02-23T00:48:56.404Z,51.16
2018-02-23T00:51:22.333Z,50.25
2018-02-23T00:53:48.263Z,50.25
2018-02-23T00:56:14.297Z,50.32
2018-02-23T00:58:40.252Z,50.72
2018-02-23T01:01:06.280Z,51.25
2018-02-23T01:03:32.252Z,51.20
2018-02-23T01:05:58.182Z,51.44
2018-02-23T01:08:24.111Z,51.41
2018-02-23T01:10:50.060Z,51.76
2018-02-23T01:13:16.033Z,50.99
2018-02-23T01:15:41.954Z,51.07
2018-02-23T01:18:07.878Z,51.29
2018-02-23T01:20:33.824Z,51.13
2018-02-23T01:22:59.750Z,51.69
2018-02-23T01:25:25.686Z,52.17
2018-02-23T01:27:51.610Z,51.76
2018-02-23T01:30:17.554Z,52.27
2018-02-23T01:32:43.539Z,52.68
2018-02-23T01:35:09.481Z,52.19
2018-02-23T01:37:35.425Z,51.89
2018-02-23T01:40:01.373Z,52.13
2018-02-23T01:42:27.326Z,52.18
2018-02-23T01:44:53.269Z,52.15
2018-02-23T01:47:19.196Z,52.06
2018-02-23T01:49:45.146Z,52.76
2018-02-23T01:52:11.102Z,53.59
2018-02-23T01:54:37.044Z,52.84
2018-02-23T01:57:02.960Z,52.85
2018-02-23T01:59:28.911Z,53.95
2018-02-23T02:01:54.850Z,53.60
2018-02-23T02:04:20.811Z,53.11
2018-02-23T02:06:46.754Z,52.44
2018-02-23T02:09:12.726Z,52.76
2018-02-23T02:11:38.667Z,52.98
2018-02-23T02:14:04.616Z,54.44
2018-02-23T02:16:30.557Z,53.57
2018-02-23T02:18:56.495Z,52.87
2018-02-23T02:21:22.440Z,52.63
2018-02-23T02:23:48.769Z,53.10
2018-02-23T02:26:14.720Z,53.82
2018-02-23T02:28:40.659Z,53.10
2018-02-23T02:31:06.612Z,52.93
2018-02-23T02:33:32.535Z,53.24
2018-02-23T02:35:58.476Z,53.90
2018-02-23T02:38:24.414Z,54.41
2018-02-23T02:40:50.339Z,54.18
2018-02-23T02:43:16.278Z,54.04
2018-02-23T02:45:42.216Z,54.02
2018-02-23T02:48:08.144Z,53.69
2018-02-23T02:50:34.077Z,53.24
2018-02-23T02:53:00.016Z,54.86
2018-02-23T02:55:25.951Z,54.51
2018-02-23T02:57:51.901Z,54.01
2018-02-23T03:00:17.826Z,53.84
2018-02-23T03:02:43.762Z,53.71
2018-02-23T03:05:09.789Z,53.95
2018-02-23T03:07:35.719Z,53.55
2018-02-23T03:10:01.647Z,53.86
2018-02-23T03:12:27.598Z,54.63
2018-02-23T03:14:53.552Z,53.77
2018-02-23T03:17:19.487Z,54.82
2018-02-23T03:19:45.431Z,54.55
2018-02-23T03:22:11.371Z,55.49
2018-02-23T03:24:37.331Z,54.55
2018-02-23T03:27:03.317Z,55.08
2018-02-23T03:29:29.252Z,54.50
2018-02-23T03:31:55.180Z,54.67
2018-02-23T03:34:21.154Z,54.01
2018-02-23T03:36:47.141Z,53.71
2018-02-23T03:39:13.138Z,53.44
2018-02-23T03:41:39.082Z,53.35
2018-02-23T03:44:05.007Z,54.60
2018-02-23T03:46:30.954Z,55.74
2018-02-23T03:48:56.897Z,55.16
2018-02-23T03:51:22.832Z,54.97
2018-02-23T03:53:48.776Z,55.20
2018-02-23T03:56:14.723Z,54.98
2018-02-23T03:58:40.659Z,53.87
2018-02-23T04:01:06.623Z,54.24
2018-02-23T04:03:32.601Z,55.53
2018-02-23T04:05:58.560Z,54.97
2018-02-23T04:08:24.503Z,55.72
2018-02-23T04:10:50.445Z,56.18
2018-02-23T04:13:16.397Z,55.12
2018-02-23T04:15:42.352Z,55.79
2018-02-23T04:18:08.290Z,55.42
2018-02-23T04:20:34.216Z,54.66
2018-02-23T04:23:00.156Z,55.21
2018-02-23T04:25:26.090Z,54.62
2018-02-23T04:27:52.029Z,54.53
2018-02-23T04:30:17.965Z,55.11
2018-02-23T04:32:43.919Z,54.70
2018-02-23T04:35:09.871Z,51.16
2018-02-23T04:37:35.807Z,53.41
2018-02-23T04:40:01.753Z,54.55
2018-02-23T04:42:27.787Z,54.76
2018-02-23T04:44:53.727Z,55.60
2018-02-23T04:47:19.717Z,56.07
2018-02-23T04:49:45.739Z,55.89
2018-02-23T04:52:11.693Z,55.18
2018-02-23T04:54:37.663Z,55.65
2018-02-23T04:57:03.611Z,55.70
2018-02-23T04:59:29.552Z,55.44
2018-02-23T05:01:55.560Z,54.60
2018-02-23T05:04:21.511Z,54.44
2018-02-23T05:06:47.453Z,54.67
2018-02-23T05:09:13.401Z,54.09
2018-02-23T05:11:39.336Z,53.98
2018-02-23T05:14:05.296Z,54.62
2018-02-23T05:16:31.253Z,54.73
2018-02-23T05:18:57.191Z,53.84
2018-02-23T05:21:23.135Z,54.45
2018-02-23T05:23:49.100Z,54.36
2018-02-23T05:26:15.049Z,53.98
2018-02-23T05:28:40.987Z,54.91
2018-02-23T05:31:06.928Z,52.95
2018-02-23T05:33:32.857Z,51.35
2018-02-23T05:35:58.797Z,51.67
2018-02-23T05:38:24.729Z,51.84
2018-02-23T05:40:50.661Z,51.43
2018-02-23T05:43:16.615Z,51.99
2018-02-23T05:45:42.589Z,51.56
2018-02-23T05:48:08.568Z,52.68
2018-02-23T05:50:34.469Z,53.14
2018-02-23T05:53:00.441Z,53.43
2018-02-23T05:55:26.384Z,52.89
2018-02-23T05:57:52.328Z,53.58
2018-02-23T06:00:18.285Z,52.44
2018-02-23T06:02:44.226Z,53.29
2018-02-23T06:05:10.171Z,53.19
2018-02-23T06:07:36.143Z,53.03
2018-02-23T06:10:02.092Z,52.83
2018-02-23T06:12:28.059Z,52.76
2018-02-23T06:14:54.039Z,53.31
2018-02-23T06:17:19.975Z,53.00
2018-02-23T06:19:45.955Z,52.55
2018-02-23T06:22:11.958Z,52.36
2018-02-23T06:24:37.902Z,52.50
2018-02-23T06:27:03.833Z,53.02
2018-02-23T06:29:29.810Z,52.45
2018-02-23T06:31:55.778Z,53.33
2018-02-23T06:34:21.731Z,53.23
2018-02-23T06:36:47.665Z,52.66
2018-02-23T06:39:13.627Z,52.16
2018-02-23T06:41:39.574Z,53.33
2018-02-23T06:44:05.515Z,52.50
2018-02-23T06:46:31.464Z,51.90
2018-02-23T06:48:57.410Z,52.27
2018-02-23T06:51:23.381Z,51.30
2018-02-23T06:53:49.377Z,51.14
2018-02-23T06:56:15.302Z,51.38
2018-02-23T06:58:41.256Z,50.84
2018-02-23T07:01:07.200Z,50.83
2018-02-23T07:03:33.255Z,51.16
2018-02-23T07:05:59.221Z,51.39
2018-02-23T07:08:25.153Z,51.14
2018-02-23T07:10:51.153Z,49.86
2018-02-23T07:13:17.098Z,49.98
2018-02-23T07:15:43.044Z,49.11
2018-02-23T07:18:08.991Z,48.99
2018-02-23T07:20:34.963Z,49.66
2018-02-23T07:23:00.901Z,49.62
2018-02-23T07:25:26.838Z,48.71
2018-02-23T07:27:52.764Z,48.48
2018-02-23T07:30:18.710Z,48.32
2018-02-23T07:32:44.628Z,48.12
2018-02-23T07:35:10.617Z,48.33
2018-02-23T07:37:36.599Z,48.55
2018-02-23T07:40:02.559Z,48.06
2018-02-23T07:42:28.573Z,48.37
2018-02-23T07:44:54.483Z,47.96
2018-02-23T07:47:20.422Z,47.12
2018-02-23T07:49:46.417Z,46.71
2018-02-23T07:52:12.362Z,46.36
2018-02-23T07:54:38.298Z,47.46
2018-02-23T07:57:04.275Z,47.08
2018-02-23T07:59:30.228Z,47.62
2018-02-23T08:01:56.180Z,46.98
2018-02-23T08:04:22.126Z,46.97
2018-02-23T08:06:48.072Z,48.49
2018-02-23T08:09:14.020Z,47.22
2018-02-23T08:11:39.960Z,47.45
2018-02-23T08:14:05.992Z,47.30
2018-02-23T08:16:31.966Z,47.04
2018-02-23T08:18:57.923Z,47.05
2018-02-23T08:21:23.894Z,46.93
2018-02-23T08:23:49.855Z,46.44
2018-02-23T08:26:15.849Z,46.89
2018-02-23T08:28:41.903Z,47.57
2018-02-23T08:31:07.906Z,46.55
2018-02-23T08:33:33.843Z,47.35
2018-02-23T08:35:59.798Z,48.32
2018-02-23T08:38:25.760Z,46.93
2018-02-23T08:40:51.716Z,46.84
2018-02-23T08:43:17.722Z,45.69
2018-02-23T08:45:43.710Z,45.23
2018-02-23T08:48:09.672Z,45.17
2018-02-23T08:50:35.628Z,45.56
2018-02-23T08:53:01.612Z,45.07
2018-02-23T08:55:27.554Z,45.21
2018-02-23T08:57:53.536Z,45.54
2018-02-23T09:00:19.476Z,45.30
2018-02-23T09:02:45.433Z,44.21
2018-02-23T09:05:11.416Z,44.00
2018-02-23T09:07:37.364Z,44.40
2018-02-23T09:10:03.346Z,43.63
2018-02-23T09:12:29.303Z,43.58
2018-02-23T09:14:55.248Z,44.12
2018-02-23T09:17:21.194Z,43.89
2018-02-23T09:19:47.148Z,44.17
2018-02-23T09:22:13.116Z,44.43
2018-02-23T09:24:39.241Z,44.90
2018-02-23T09:27:05.168Z,45.34
2018-02-23T09:29:31.104Z,45.51
2018-02-23T09:31:57.066Z,44.21
2018-02-23T09:34:23.011Z,44.39
2018-02-23T09:36:48.973Z,44.70
2018-02-23T09:39:14.917Z,43.63
2018-02-23T09:41:40.850Z,43.57
2018-02-23T09:44:06.814Z,44.78
2018-02-23T09:46:32.748Z,43.53
2018-02-23T09:48:58.678Z,43.47
2018-02-23T09:51:24.638Z,43.02
2018-02-23T09:53:50.574Z,43.62
2018-02-23T09:56:16.538Z,43.62
2018-02-23T09:58:42.491Z,44.89
2018-02-23T10:01:08.469Z,44.97
2018-02-23T10:03:34.438Z,44.51
2018-02-23T10:06:00.414Z,43.42
2018-02-23T10:08:26.349Z,43.63
2018-02-23T10:10:52.360Z,43.88
2018-02-23T10:13:18.254Z,43.89
2018-02-23T10:15:44.206Z,42.52
2018-02-23T10:18:10.156Z,43.91
2018-02-23T10:20:36.198Z,43.85
2018-02-23T10:23:02.173Z,42.99
2018-02-23T10:25:28.110Z,43.45
2018-02-23T10:27:54.067Z,42.67
2018-02-23T10:30:20.242Z,42.41
2018-02-23T10:32:46.263Z,41.30
2018-02-23T10:35:12.194Z,41.11
2018-02-23T10:37:38.120Z,41.62
2018-02-23T10:40:04.129Z,41.43
2018-02-23T10:42:30.083Z,40.85
2018-02-23T10:44:56.035Z,41.05
2018-02-23T10:47:21.974Z,40.77
2018-02-23T10:49:47.908Z,40.65
2018-02-23T10:52:13.846Z,40.54
2018-02-23T10:54:39.770Z,41.46
2018-02-23T10:57:05.711Z,41.79
2018-02-23T10:59:31.642Z,41.07
2018-02-23T11:01:57.600Z,40.69
2018-02-23T11:04:23.552Z,40.25
2018-02-23T11:06:49.518Z,40.70
2018-02-23T11:09:15.454Z,40.40
2018-02-23T11:11:41.401Z,40.19
2018-02-23T11:14:07.330Z,40.85
2018-02-23T11:16:33.293Z,40.33
2018-02-23T11:18:59.231Z,39.49
2018-02-23T11:21:25.170Z,38.69
2018-02-23T11:23:51.109Z,39.16
2018-02-23T11:26:17.061Z,39.29
2018-02-23T11:28:43.015Z,39.48
2018-02-23T11:31:08.963Z,40.25
2018-02-23T11:33:34.890Z,40.61
2018-02-23T11:36:00.848Z,38.59
2018-02-23T11:38:26.799Z,37.67
2018-02-23T11:40:52.788Z,37.76
2018-02-23T11:43:18.733Z,37.45
2018-02-23T11:45:44.696Z,37.29
2018-02-23T11:48:10.747Z,38.61
2018-02-23T11:50:36.707Z,39.08
2018-02-23T11:53:02.671Z,39.27
2018-02-23T11:55:28.604Z,39.53
2018-02-23T11:57:54.564Z,38.64
2018-02-23T12:00:20.525Z,38.91
2018-02-23T12:02:46.471Z,38.79
2018-02-23T12:05:12.411Z,38.52
2018-02-23T12:07:38.355Z,38.20
2018-02-23T12:10:04.295Z,38.33
2018-02-23T12:12:30.245Z,38.07
2018-02-23T12:14:56.235Z,38.89
2018-02-23T12:17:22.179Z,38.19
2018-02-23T12:19:48.127Z,38.39
2018-02-23T12:22:14.059Z,38.44
2018-02-23T12:24:40.011Z,38.92
2018-02-23T12:27:05.951Z,38.54
2018-02-23T12:29:31.925Z,37.76
2018-02-23T12:31:57.867Z,36.99
2018-02-23T12:34:23.854Z,37.16
2018-02-23T12:36:49.795Z,37.01
2018-02-23T12:39:15.749Z,36.96
2018-02-23T12:41:41.703Z,36.70
2018-02-23T12:44:07.640Z,36.73
2018-02-23T12:46:33.599Z,36.13
2018-02-23T12:48:59.557Z,36.87
2018-02-23T12:51:25.493Z,35.65
2018-02-23T12:53:51.435Z,35.63
2018-02-23T12:56:17.379Z,35.42
2018-02-23T12:58:43.325Z,35.63
2018-02-23T13:01:09.291Z,35.99
2018-02-23T13:03:35.227Z,36.05
2018-02-23T13:06:01.163Z,35.91
2018-02-23T13:08:27.105Z,35.96
2018-02-23T13:10:53.050Z,35.53
2018-02-23T13:13:19.013Z,35.21
2018-02-23T13:15:44.959Z,34.26
2018-02-23T13:18:10.916Z,34.83
2018-02-23T13:20:36.871Z,34.77
2018-02-23T13:23:02.814Z,34.79
2018-02-23T13:25:28.759Z,34.87
2018-02-23T13:27:54.704Z,35.04
2018-02-23T13:30:20.655Z,34.87
2018-02-23T13:32:46.579Z,34.75
2018-02-23T13:35:12.507Z,34.61
2018-02-23T13:37:38.462Z,35.73
2018-02-23T13:40:04.427Z,35.78
2018-02-23T13:42:30.383Z,36.28
2018-02-23T13:44:56.385Z,35.40
2018-02-23T13:47:22.327Z,35.93
2018-02-23T13:49:48.307Z,35.81
2018-02-23T13:52:14.261Z,34.92
2018-02-23T13:54:40.205Z,35.36
2018-02-23T13:57:06.178Z,35.33
2018-02-23T13:59:32.117Z,35.49
2018-02-23T14:01:58.051Z,35.63
2018-02-23T14:04:23.991Z,35.73
2018-02-23T14:06:49.934Z,35.16
2018-02-23T14:09:15.885Z,35.71
2018-02-23T14:11:41.857Z,35.53
2018-02-23T14:14:07.820Z,35.70
2018-02-23T14:16:33.765Z,36.10
2018-02-23T14:18:59.697Z,36.61
2018-02-23T14:21:25.626Z,35.81
2018-02-23T14:23:51.587Z,36.05
2018-02-23T14:26:17.552Z,36.27
2018-02-23T14:28:43.481Z,36.26
2018-02-23T14:31:09.499Z,36.13
2018-02-23T14:33:35.436Z,35.99
2018-02-23T14:36:01.399Z,36.48
2018-02-23T14:38:27.332Z,36.04
2018-02-23T14:40:53.268Z,36.94
2018-02-23T14:43:19.209Z,37.43
2018-02-23T14:45:45.190Z,38.38
2018-02-23T14:48:11.132Z,38.90
2018-02-23T14:50:37.082Z,38.98
2018-02-23T14:53:03.014Z,38.79
2018-02-23T14:55:28.975Z,37.38
2018-02-23T14:57:54.906Z,37.45
2018-02-23T15:00:20.866Z,37.48
2018-02-23T15:02:46.824Z,38.66
2018-02-23T15:05:12.762Z,38.68
2018-02-23T15:07:38.716Z,38.51
2018-02-23T15:10:04.692Z,38.57
2018-02-23T15:12:30.638Z,38.95
2018-02-23T15:14:56.594Z,38.98
2018-02-23T15:17:22.530Z,37.33
2018-02-23T15:19:48.487Z,37.88
2018-02-23T15:22:14.418Z,37.60
2018-02-23T15:24:40.372Z,38.21
2018-02-23T15:27:06.306Z,38.97
2018-02-23T15:29:32.274Z,39.40
2018-02-23T15:31:58.209Z,39.31
2018-02-23T15:34:24.156Z,39.03
2018-02-23T15:36:50.093Z,39.13
2018-02-23T15:39:16.058Z,38.84
2018-02-23T15:41:42.077Z,39.25
2018-02-23T15:44:08.028Z,39.31
2018-02-23T15:46:33.980Z,39.61
2018-02-23T15:48:59.954Z,39.33
2018-02-23T15:51:25.891Z,39.75
2018-02-23T15:53:51.851Z,39.87
2018-02-23T15:56:17.810Z,39.94
2018-02-23T15:58:43.751Z,39.56
2018-02-23T16:01:09.691Z,40.23
2018-02-23T16:03:35.646Z,40.54
2018-02-23T16:06:01.595Z,40.88
2018-02-23T16:08:27.534Z,40.58
2018-02-23T16:10:53.464Z,40.63
2018-02-23T16:13:19.398Z,40.28
2018-02-23T16:15:45.334Z,40.86
2018-02-23T16:18:11.308Z,41.04
2018-02-23T16:20:37.344Z,41.64
2018-02-23T16:23:03.275Z,41.52
2018-02-23T16:25:29.232Z,41.13
2018-02-23T16:27:55.174Z,41.43
2018-02-23T16:30:21.207Z,41.62
2018-02-23T16:32:47.146Z,41.90
2018-02-23T16:35:13.081Z,41.70
2018-02-23T16:37:39.034Z,41.26
2018-02-23T16:40:04.989Z,41.62
2018-02-23T16:42:30.946Z,42.06
2018-02-23T16:44:56.894Z,42.14
2018-02-23T16:47:22.870Z,42.07
2018-02-23T16:49:48.907Z,42.47
2018-02-23T16:52:14.834Z,42.32
2018-02-23T16:54:40.774Z,42.16
2018-02-23T16:57:06.719Z,42.61
2018-02-23T16:59:32.714Z,42.65
2018-02-23T17:01:58.702Z,42.82
2018-02-23T17:04:24.685Z,42.38
2018-02-23T17:06:50.606Z,42.58
2018-02-23T17:09:16.551Z,42.50
2018-02-23T17:11:42.493Z,43.10
2018-02-23T17:14:08.437Z,42.60
2018-02-23T17:16:34.387Z,42.42
2018-02-23T17:19:00.298Z,42.68
2018-02-23T17:21:26.238Z,43.12
2018-02-23T17:23:52.167Z,42.74
2018-02-23T17:26:18.127Z,43.35
2018-02-23T17:28:44.099Z,43.43
2018-02-23T17:31:10.025Z,43.59
2018-02-23T17:33:37.123Z,43.13
2018-02-23T17:36:03.143Z,43.37
2018-02-23T17:38:29.097Z,43.36
2018-02-23T17:40:55.049Z,44.52
2018-02-23T17:43:21.009Z,43.65
2018-02-23T17:45:46.955Z,43.90
2018-02-23T17:48:12.923Z,43.85
2018-02-23T17:50:38.863Z,44.01
2018-02-23T17:53:04.811Z,43.59
2018-02-23T17:55:30.802Z,43.47
2018-02-23T17:57:56.712Z,43.72
2018-02-23T18:00:22.655Z,43.47
2018-02-23T18:02:48.934Z,43.71
2018-02-23T18:05:14.903Z,44.12
2018-02-23T18:07:40.851Z,43.71
2018-02-23T18:10:06.861Z,43.69
2018-02-23T18:12:32.885Z,43.52
2018-02-23T18:14:58.837Z,44.10
2018-02-23T18:17:24.803Z,44.34
2018-02-23T18:19:50.759Z,44.53
2018-02-23T18:22:16.742Z,43.48
2018-02-23T18:24:42.754Z,44.13
2018-02-23T18:27:08.695Z,44.85
2018-02-23T18:29:34.639Z,44.23
2018-02-23T18:32:00.579Z,42.64
2018-02-23T18:34:26.547Z,44.17
2018-02-23T18:36:52.497Z,44.38
2018-02-23T18:39:18.536Z,43.52
2018-02-23T18:41:44.493Z,43.64
2018-02-23T18:44:10.441Z,43.93
2018-02-23T18:46:36.382Z,44.10
2018-02-23T18:49:02.365Z,43.97
2018-02-23T18:51:28.297Z,42.22
2018-02-23T18:53:54.249Z,42.46
2018-02-23T18:56:20.188Z,42.95
2018-02-23T18:58:46.217Z,42.51
2018-02-23T19:01:12.179Z,42.96
2018-02-23T19:03:38.118Z,42.95
2018-02-23T19:06:04.111Z,42.51
2018-02-23T19:08:30.047Z,43.52
2018-02-23T19:10:56.028Z,42.34
2018-02-23T19:13:21.963Z,42.94
2018-02-23T19:15:47.905Z,42.12
2018-02-23T19:18:13.857Z,43.50
2018-02-23T19:20:39.805Z,43.40
2018-02-23T19:23:05.735Z,43.17
2018-02-23T19:25:31.695Z,43.46
2018-02-23T19:27:57.659Z,42.63
2018-02-23T19:30:23.869Z,43.51
2018-02-23T19:32:49.805Z,42.64
2018-02-23T19:35:15.777Z,43.63
2018-02-23T19:37:41.736Z,43.61
2018-02-23T19:40:07.692Z,44.17
2018-02-23T19:42:33.649Z,44.52
2018-02-23T19:44:59.667Z,42.86
2018-02-23T19:47:25.676Z,42.72
2018-02-23T19:49:51.614Z,44.08
2018-02-23T19:52:17.567Z,44.35
2018-02-23T19:54:43.517Z,44.05
2018-02-23T19:57:09.534Z,44.76
2018-02-23T19:59:35.464Z,44.69
2018-02-23T20:02:01.418Z,44.51
2018-02-23T20:04:27.356Z,44.26
2018-02-23T20:06:53.320Z,44.44
2018-02-23T20:09:19.272Z,45.44
2018-02-23T20:11:45.219Z,44.52
2018-02-23T20:14:11.190Z,45.57
2018-02-23T20:16:37.131Z,52.70
2018-02-23T20:19:03.454Z,46.19
2018-02-23T20:21:29.693Z,47.56
2018-02-23T20:23:55.780Z,45.07
2018-02-23T20:26:22.094Z,45.00
2018-02-23T20:28:48.084Z,46.68
2018-02-23T20:31:14.012Z,44.84
2018-02-23T20:33:39.990Z,43.40
2018-02-23T20:36:05.928Z,45.08
2018-02-23T20:38:32.002Z,44.72
2018-02-23T20:40:57.940Z,44.52
2018-02-23T20:43:23.906Z,45.52
2018-02-23T20:45:49.883Z,46.22
2018-02-23T20:48:15.837Z,45.99
2018-02-23T20:50:41.785Z,45.52
2018-02-23T20:53:07.753Z,46.38
2018-02-23T20:55:33.726Z,45.75
2018-02-23T20:57:59.685Z,45.61
2018-02-23T21:00:25.619Z,46.76
2018-02-23T21:02:51.581Z,45.55
2018-02-23T21:05:17.522Z,44.90
2018-02-23T21:07:43.474Z,44.70
2018-02-23T21:10:09.398Z,46.99
2018-02-23T21:12:35.354Z,45.40
2018-02-23T21:15:01.303Z,45.89
2018-02-23T21:17:27.269Z,46.59
2018-02-23T21:19:53.206Z,47.31
2018-02-23T21:22:19.168Z,47.90
2018-02-23T21:24:45.103Z,47.00
2018-02-23T21:27:11.043Z,48.10
2018-02-23T21:29:37.060Z,48.20
2018-02-23T21:32:03.011Z,48.68
2018-02-23T21:34:28.955Z,52.03
2018-02-23T21:36:54.909Z,49.68
2018-02-23T21:39:20.855Z,46.95
2018-02-23T21:41:46.843Z,47.75
2018-02-23T21:44:12.833Z,49.68
2018-02-23T21:46:38.795Z,48.18
2018-02-23T21:49:04.827Z,47.72
2018-02-23T21:51:30.860Z,46.83
2018-02-23T21:53:56.809Z,46.61
2018-02-23T21:56:22.750Z,47.73
2018-02-23T21:58:48.710Z,47.21
2018-02-23T22:01:14.703Z,48.10
2018-02-23T22:03:40.673Z,48.12
2018-02-23T22:06:06.619Z,47.94
2018-02-23T22:08:32.546Z,46.97
2018-02-23T22:10:58.490Z,48.21
2018-02-23T22:13:24.439Z,48.92
2018-02-23T22:15:50.381Z,48.53
2018-02-23T22:18:16.330Z,48.70
2018-02-23T22:20:42.276Z,47.28
2018-02-23T22:23:08.223Z,46.25
2018-02-23T22:25:34.175Z,47.01
2018-02-23T22:28:00.115Z,47.39
2018-02-23T22:30:26.077Z,47.98
2018-02-23T22:32:52.027Z,48.94
2018-02-23T22:35:17.983Z,49.50
2018-02-23T22:37:43.919Z,50.17
2018-02-23T22:40:09.879Z,50.00
2018-02-23T22:42:35.801Z,49.25
2018-02-23T22:45:01.766Z,48.21
2018-02-23T22:47:27.714Z,48.16
2018-02-23T22:49:53.655Z,49.59
2018-02-23T22:52:19.625Z,49.11
2018-02-23T22:54:45.637Z,50.54
2018-02-23T22:57:11.601Z,50.34
2018-02-23T22:59:37.551Z,48.60
2018-02-23T23:02:03.471Z,49.34
2018-02-23T23:04:29.410Z,49.69
2018-02-23T23:06:55.359Z,49.53
2018-02-23T23:09:21.309Z,49.54
2018-02-23T23:11:47.301Z,49.56
2018-02-23T23:14:13.241Z,49.90
2018-02-23T23:16:39.204Z,47.81
2018-02-23T23:19:05.144Z,47.72
2018-02-23T23:21:31.112Z,47.75
2018-02-23T23:23:57.082Z,48.98
2018-02-23T23:26:23.033Z,48.40
2018-02-23T23:28:49.279Z,48.80
2018-02-23T23:31:15.246Z,47.63
2018-02-23T23:33:41.205Z,48.57
2018-02-23T23:36:07.187Z,49.70
2018-02-23T23:38:33.114Z,50.38
2018-02-23T23:40:59.083Z,49.91
2018-02-23T23:43:25.017Z,49.82
2018-02-23T23:45:50.975Z,49.97
2018-02-23T23:48:16.910Z,50.17
2018-02-23T23:50:42.856Z,50.66
2018-02-23T23:53:08.799Z,51.18
2018-02-23T23:55:34.748Z,52.12
2018-02-23T23:58:00.683Z,51.72
